sensor_id;sensor_type;location;lat;lon;timestamp;temperature;humidity
22568;DHT22;11450;50.818;4.382;2022-07-29T00:01:54;20.70;93.80
22568;DHT22;11450;50.818;4.382;2022-07-29T00:04:19;20.70;92.90
22568;DHT22;11450;50.818;4.382;2022-07-29T00:06:45;20.80;93.50
22568;DHT22;11450;50.818;4.382;2022-07-29T00:09:11;20.70;93.70
22568;DHT22;11450;50.818;4.382;2022-07-29T00:11:36;20.70;93.90
22568;DHT22;11450;50.818;4.382;2022-07-29T00:14:02;20.70;93.90
22568;DHT22;11450;50.818;4.382;2022-07-29T00:16:28;20.70;93.90
22568;DHT22;11450;50.818;4.382;2022-07-29T00:18:54;20.60;93.70
22568;DHT22;11450;50.818;4.382;2022-07-29T00:21:19;20.60;93.70
22568;DHT22;11450;50.818;4.382;2022-07-29T00:23:45;20.60;93.80
22568;DHT22;11450;50.818;4.382;2022-07-29T00:26:11;20.60;93.10
22568;DHT22;11450;50.818;4.382;2022-07-29T00:28:36;20.60;94.00
22568;DHT22;11450;50.818;4.382;2022-07-29T00:31:02;20.60;94.00
22568;DHT22;11450;50.818;4.382;2022-07-29T00:33:28;20.60;93.80
22568;DHT22;11450;50.818;4.382;2022-07-29T00:35:54;20.50;94.40
22568;DHT22;11450;50.818;4.382;2022-07-29T00:38:20;20.40;93.40
22568;DHT22;11450;50.818;4.382;2022-07-29T00:40:46;20.40;93.80
22568;DHT22;11450;50.818;4.382;2022-07-29T00:43:13;20.50;94.00
22568;DHT22;11450;50.818;4.382;2022-07-29T00:45:43;20.50;93.50
22568;DHT22;11450;50.818;4.382;2022-07-29T00:48:09;20.40;94.50
22568;DHT22;11450;50.818;4.382;2022-07-29T00:50:36;20.40;94.50
22568;DHT22;11450;50.818;4.382;2022-07-29T00:53:03;20.40;94.30
22568;DHT22;11450;50.818;4.382;2022-07-29T00:55:29;20.40;94.60
22568;DHT22;11450;50.818;4.382;2022-07-29T00:57:55;20.40;94.50
22568;DHT22;11450;50.818;4.382;2022-07-29T01:00:23;20.20;94.20
22568;DHT22;11450;50.818;4.382;2022-07-29T01:02:49;20.30;94.50
22568;DHT22;11450;50.818;4.382;2022-07-29T01:05:17;20.30;94.80
22568;DHT22;11450;50.818;4.382;2022-07-29T01:07:44;20.20;94.60
22568;DHT22;11450;50.818;4.382;2022-07-29T01:10:12;20.20;94.70
22568;DHT22;11450;50.818;4.382;2022-07-29T01:12:38;20.20;94.50
22568;DHT22;11450;50.818;4.382;2022-07-29T01:15:08;20.10;94.80
22568;DHT22;11450;50.818;4.382;2022-07-29T01:20:31;20.10;94.70
22568;DHT22;11450;50.818;4.382;2022-07-29T01:26:04;20.10;94.20
22568;DHT22;11450;50.818;4.382;2022-07-29T01:31:10;20.00;95.10
22568;DHT22;11450;50.818;4.382;2022-07-29T01:33:41;20.00;94.80
22568;DHT22;11450;50.818;4.382;2022-07-29T01:36:25;20.00;94.80
22568;DHT22;11450;50.818;4.382;2022-07-29T01:39:00;20.00;95.30
22568;DHT22;11450;50.818;4.382;2022-07-29T01:41:31;20.00;95.30
22568;DHT22;11450;50.818;4.382;2022-07-29T01:44:01;19.90;94.90
22568;DHT22;11450;50.818;4.382;2022-07-29T01:46:34;19.90;94.80
22568;DHT22;11450;50.818;4.382;2022-07-29T01:49:10;19.90;95.00
22568;DHT22;11450;50.818;4.382;2022-07-29T01:51:50;19.90;95.10
22568;DHT22;11450;50.818;4.382;2022-07-29T01:54:32;19.80;95.40
22568;DHT22;11450;50.818;4.382;2022-07-29T01:57:00;19.80;96.10
22568;DHT22;11450;50.818;4.382;2022-07-29T01:59:29;19.90;95.50
22568;DHT22;11450;50.818;4.382;2022-07-29T02:01:57;19.70;95.60
22568;DHT22;11450;50.818;4.382;2022-07-29T02:04:24;19.70;95.70
22568;DHT22;11450;50.818;4.382;2022-07-29T02:06:52;19.70;95.60
22568;DHT22;11450;50.818;4.382;2022-07-29T02:09:20;19.70;95.20
22568;DHT22;11450;50.818;4.382;2022-07-29T02:11:51;19.80;95.70
22568;DHT22;11450;50.818;4.382;2022-07-29T02:14:18;19.70;95.60
22568;DHT22;11450;50.818;4.382;2022-07-29T02:16:45;19.70;95.50
22568;DHT22;11450;50.818;4.382;2022-07-29T02:19:12;19.60;95.50
22568;DHT22;11450;50.818;4.382;2022-07-29T02:21:40;19.70;95.70
22568;DHT22;11450;50.818;4.382;2022-07-29T02:24:07;19.60;95.80
22568;DHT22;11450;50.818;4.382;2022-07-29T02:26:34;19.70;95.90
22568;DHT22;11450;50.818;4.382;2022-07-29T02:29:00;19.70;95.70
22568;DHT22;11450;50.818;4.382;2022-07-29T02:31:33;19.60;95.60
22568;DHT22;11450;50.818;4.382;2022-07-29T02:34:01;19.60;95.90
22568;DHT22;11450;50.818;4.382;2022-07-29T02:36:29;19.60;96.10
22568;DHT22;11450;50.818;4.382;2022-07-29T02:38:57;19.60;96.20
22568;DHT22;11450;50.818;4.382;2022-07-29T02:41:46;19.50;96.20
22568;DHT22;11450;50.818;4.382;2022-07-29T02:44:15;19.50;96.30
22568;DHT22;11450;50.818;4.382;2022-07-29T02:46:58;19.50;96.20
22568;DHT22;11450;50.818;4.382;2022-07-29T02:52:24;19.50;96.40
22568;DHT22;11450;50.818;4.382;2022-07-29T02:55:25;19.40;96.00
22568;DHT22;11450;50.818;4.382;2022-07-29T02:58:02;19.40;96.40
22568;DHT22;11450;50.818;4.382;2022-07-29T03:00:31;19.40;96.30
22568;DHT22;11450;50.818;4.382;2022-07-29T03:03:00;19.40;96.40
22568;DHT22;11450;50.818;4.382;2022-07-29T03:05:29;19.30;96.20
22568;DHT22;11450;50.818;4.382;2022-07-29T03:07:58;19.40;96.40
22568;DHT22;11450;50.818;4.382;2022-07-29T03:10:26;19.50;96.80
22568;DHT22;11450;50.818;4.382;2022-07-29T03:12:53;19.30;96.20
22568;DHT22;11450;50.818;4.382;2022-07-29T03:15:20;19.30;96.20
22568;DHT22;11450;50.818;4.382;2022-07-29T03:17:46;19.30;96.30
22568;DHT22;11450;50.818;4.382;2022-07-29T03:20:12;19.20;96.40
22568;DHT22;11450;50.818;4.382;2022-07-29T03:22:43;19.30;96.50
22568;DHT22;11450;50.818;4.382;2022-07-29T03:25:10;19.30;96.40
22568;DHT22;11450;50.818;4.382;2022-07-29T03:27:36;19.30;96.50
22568;DHT22;11450;50.818;4.382;2022-07-29T03:30:03;19.30;96.60
22568;DHT22;11450;50.818;4.382;2022-07-29T03:32:28;19.30;96.80
22568;DHT22;11450;50.818;4.382;2022-07-29T03:34:54;19.20;96.60
22568;DHT22;11450;50.818;4.382;2022-07-29T03:37:19;19.20;96.80
22568;DHT22;11450;50.818;4.382;2022-07-29T03:39:46;19.20;96.40
22568;DHT22;11450;50.818;4.382;2022-07-29T03:42:15;19.10;96.60
22568;DHT22;11450;50.818;4.382;2022-07-29T03:44:43;19.20;96.80
22568;DHT22;11450;50.818;4.382;2022-07-29T03:47:11;19.20;96.80
22568;DHT22;11450;50.818;4.382;2022-07-29T03:49:39;19.20;96.60
22568;DHT22;11450;50.818;4.382;2022-07-29T03:52:05;19.10;96.10
22568;DHT22;11450;50.818;4.382;2022-07-29T03:54:31;19.00;96.40
22568;DHT22;11450;50.818;4.382;2022-07-29T03:56:59;19.00;96.60
22568;DHT22;11450;50.818;4.382;2022-07-29T03:59:27;19.10;97.20
22568;DHT22;11450;50.818;4.382;2022-07-29T04:01:53;19.00;96.90
22568;DHT22;11450;50.818;4.382;2022-07-29T04:04:21;18.90;96.30
22568;DHT22;11450;50.818;4.382;2022-07-29T04:06:47;18.90;96.90
22568;DHT22;11450;50.818;4.382;2022-07-29T04:09:13;18.90;97.30
22568;DHT22;11450;50.818;4.382;2022-07-29T04:11:40;18.90;97.50
22568;DHT22;11450;50.818;4.382;2022-07-29T04:14:06;18.90;97.10
22568;DHT22;11450;50.818;4.382;2022-07-29T04:16:31;19.00;97.10
22568;DHT22;11450;50.818;4.382;2022-07-29T04:18:57;19.00;97.50
22568;DHT22;11450;50.818;4.382;2022-07-29T04:21:23;19.00;97.10
22568;DHT22;11450;50.818;4.382;2022-07-29T04:23:48;19.00;96.70
22568;DHT22;11450;50.818;4.382;2022-07-29T04:26:18;19.00;96.70
22568;DHT22;11450;50.818;4.382;2022-07-29T04:28:44;18.90;97.30
22568;DHT22;11450;50.818;4.382;2022-07-29T04:31:10;18.90;97.00
22568;DHT22;11450;50.818;4.382;2022-07-29T04:33:36;18.90;97.30
22568;DHT22;11450;50.818;4.382;2022-07-29T04:36:02;18.90;97.30
22568;DHT22;11450;50.818;4.382;2022-07-29T04:38:28;18.90;97.40
22568;DHT22;11450;50.818;4.382;2022-07-29T04:40:53;18.90;97.40
22568;DHT22;11450;50.818;4.382;2022-07-29T04:43:19;18.90;98.00
22568;DHT22;11450;50.818;4.382;2022-07-29T04:45:44;18.90;97.80
22568;DHT22;11450;50.818;4.382;2022-07-29T04:48:10;18.80;97.60
22568;DHT22;11450;50.818;4.382;2022-07-29T04:50:39;19.00;97.90
22568;DHT22;11450;50.818;4.382;2022-07-29T04:53:05;18.80;97.80
22568;DHT22;11450;50.818;4.382;2022-07-29T04:55:32;18.80;97.40
22568;DHT22;11450;50.818;4.382;2022-07-29T04:57:58;18.90;97.60
22568;DHT22;11450;50.818;4.382;2022-07-29T05:00:23;18.80;97.80
22568;DHT22;11450;50.818;4.382;2022-07-29T05:02:49;18.80;97.90
22568;DHT22;11450;50.818;4.382;2022-07-29T05:05:15;18.90;97.90
22568;DHT22;11450;50.818;4.382;2022-07-29T05:07:41;18.80;98.20
22568;DHT22;11450;50.818;4.382;2022-07-29T05:10:07;18.80;98.00
22568;DHT22;11450;50.818;4.382;2022-07-29T05:12:33;18.80;97.90
22568;DHT22;11450;50.818;4.382;2022-07-29T05:14:59;18.80;97.80
22568;DHT22;11450;50.818;4.382;2022-07-29T05:17:24;18.80;98.10
22568;DHT22;11450;50.818;4.382;2022-07-29T05:19:50;18.80;97.70
22568;DHT22;11450;50.818;4.382;2022-07-29T05:22:20;18.70;98.20
22568;DHT22;11450;50.818;4.382;2022-07-29T05:24:46;18.80;98.50
22568;DHT22;11450;50.818;4.382;2022-07-29T05:27:12;18.80;98.40
22568;DHT22;11450;50.818;4.382;2022-07-29T05:29:38;18.80;97.90
22568;DHT22;11450;50.818;4.382;2022-07-29T05:32:04;18.90;98.30
22568;DHT22;11450;50.818;4.382;2022-07-29T05:34:30;18.90;98.20
22568;DHT22;11450;50.818;4.382;2022-07-29T05:36:56;18.80;97.80
22568;DHT22;11450;50.818;4.382;2022-07-29T05:39:22;18.90;98.10
22568;DHT22;11450;50.818;4.382;2022-07-29T05:41:48;18.90;97.80
22568;DHT22;11450;50.818;4.382;2022-07-29T05:44:14;19.10;98.30
22568;DHT22;11450;50.818;4.382;2022-07-29T05:46:40;18.90;98.10
22568;DHT22;11450;50.818;4.382;2022-07-29T05:49:06;19.00;97.90
22568;DHT22;11450;50.818;4.382;2022-07-29T05:51:33;19.00;98.50
22568;DHT22;11450;50.818;4.382;2022-07-29T05:53:59;18.90;98.20
22568;DHT22;11450;50.818;4.382;2022-07-29T05:56:24;18.90;98.70
22568;DHT22;11450;50.818;4.382;2022-07-29T05:58:51;18.90;98.20
22568;DHT22;11450;50.818;4.382;2022-07-29T06:01:17;19.00;98.50
22568;DHT22;11450;50.818;4.382;2022-07-29T06:03:42;19.00;98.10
22568;DHT22;11450;50.818;4.382;2022-07-29T06:06:08;19.00;98.00
22568;DHT22;11450;50.818;4.382;2022-07-29T06:08:34;19.00;98.00
22568;DHT22;11450;50.818;4.382;2022-07-29T06:11:01;19.10;98.00
22568;DHT22;11450;50.818;4.382;2022-07-29T06:13:27;19.10;98.10
22568;DHT22;11450;50.818;4.382;2022-07-29T06:15:53;19.10;98.20
22568;DHT22;11450;50.818;4.382;2022-07-29T06:18:19;19.00;98.70
22568;DHT22;11450;50.818;4.382;2022-07-29T06:20:46;19.10;98.70
22568;DHT22;11450;50.818;4.382;2022-07-29T06:23:12;19.10;98.40
22568;DHT22;11450;50.818;4.382;2022-07-29T06:25:40;19.20;98.20
22568;DHT22;11450;50.818;4.382;2022-07-29T06:28:05;19.20;98.50
22568;DHT22;11450;50.818;4.382;2022-07-29T06:30:31;19.20;99.10
22568;DHT22;11450;50.818;4.382;2022-07-29T06:32:57;19.20;98.70
22568;DHT22;11450;50.818;4.382;2022-07-29T06:35:23;19.30;98.70
22568;DHT22;11450;50.818;4.382;2022-07-29T06:37:48;19.40;98.60
22568;DHT22;11450;50.818;4.382;2022-07-29T06:40:14;19.40;99.00
22568;DHT22;11450;50.818;4.382;2022-07-29T06:42:58;19.40;98.60
22568;DHT22;11450;50.818;4.382;2022-07-29T06:45:24;19.50;98.70
22568;DHT22;11450;50.818;4.382;2022-07-29T06:47:50;19.50;98.50
22568;DHT22;11450;50.818;4.382;2022-07-29T06:50:16;19.60;98.60
22568;DHT22;11450;50.818;4.382;2022-07-29T06:52:42;19.70;98.60
22568;DHT22;11450;50.818;4.382;2022-07-29T06:55:08;19.70;98.60
22568;DHT22;11450;50.818;4.382;2022-07-29T06:57:34;19.80;98.40
22568;DHT22;11450;50.818;4.382;2022-07-29T06:59:59;20.00;97.70
22568;DHT22;11450;50.818;4.382;2022-07-29T07:02:25;20.10;97.80
22568;DHT22;11450;50.818;4.382;2022-07-29T07:04:50;20.20;97.80
22568;DHT22;11450;50.818;4.382;2022-07-29T07:07:16;20.40;97.70
22568;DHT22;11450;50.818;4.382;2022-07-29T07:09:42;20.50;97.60
22568;DHT22;11450;50.818;4.382;2022-07-29T07:12:07;20.60;97.10
22568;DHT22;11450;50.818;4.382;2022-07-29T07:14:33;20.80;97.20
22568;DHT22;11450;50.818;4.382;2022-07-29T07:16:59;20.80;97.10
22568;DHT22;11450;50.818;4.382;2022-07-29T07:19:26;20.80;96.90
22568;DHT22;11450;50.818;4.382;2022-07-29T07:21:52;21.00;96.60
22568;DHT22;11450;50.818;4.382;2022-07-29T07:24:18;21.10;96.60
22568;DHT22;11450;50.818;4.382;2022-07-29T07:26:44;21.20;96.50
22568;DHT22;11450;50.818;4.382;2022-07-29T07:29:10;21.10;96.40
22568;DHT22;11450;50.818;4.382;2022-07-29T07:31:36;21.20;96.40
22568;DHT22;11450;50.818;4.382;2022-07-29T07:34:02;21.40;96.10
22568;DHT22;11450;50.818;4.382;2022-07-29T07:36:27;21.40;96.10
22568;DHT22;11450;50.818;4.382;2022-07-29T07:38:53;21.60;95.80
22568;DHT22;11450;50.818;4.382;2022-07-29T07:41:19;21.80;95.30
22568;DHT22;11450;50.818;4.382;2022-07-29T07:43:44;21.90;95.10
22568;DHT22;11450;50.818;4.382;2022-07-29T07:46:10;22.00;95.10
22568;DHT22;11450;50.818;4.382;2022-07-29T07:48:51;21.90;95.10
22568;DHT22;11450;50.818;4.382;2022-07-29T07:51:18;22.30;94.90
22568;DHT22;11450;50.818;4.382;2022-07-29T07:53:43;22.90;93.80
22568;DHT22;11450;50.818;4.382;2022-07-29T07:56:10;23.70;93.00
22568;DHT22;11450;50.818;4.382;2022-07-29T07:58:37;24.30;92.00
22568;DHT22;11450;50.818;4.382;2022-07-29T08:01:03;24.70;91.10
22568;DHT22;11450;50.818;4.382;2022-07-29T08:03:29;25.00;90.90
22568;DHT22;11450;50.818;4.382;2022-07-29T08:05:54;25.40;90.30
22568;DHT22;11450;50.818;4.382;2022-07-29T08:08:21;25.60;89.60
22568;DHT22;11450;50.818;4.382;2022-07-29T08:10:46;25.80;88.40
22568;DHT22;11450;50.818;4.382;2022-07-29T08:13:20;25.80;88.60
22568;DHT22;11450;50.818;4.382;2022-07-29T08:15:47;26.40;87.40
22568;DHT22;11450;50.818;4.382;2022-07-29T08:18:23;25.80;87.30
22568;DHT22;11450;50.818;4.382;2022-07-29T08:20:50;24.80;90.20
22568;DHT22;11450;50.818;4.382;2022-07-29T08:23:15;24.20;91.10
22568;DHT22;11450;50.818;4.382;2022-07-29T08:25:41;23.80;91.60
22568;DHT22;11450;50.818;4.382;2022-07-29T08:28:07;23.60;92.00
22568;DHT22;11450;50.818;4.382;2022-07-29T08:30:35;23.20;92.50
22568;DHT22;11450;50.818;4.382;2022-07-29T08:33:02;22.80;93.00
22568;DHT22;11450;50.818;4.382;2022-07-29T08:35:28;22.50;93.80
22568;DHT22;11450;50.818;4.382;2022-07-29T08:37:54;22.30;93.90
22568;DHT22;11450;50.818;4.382;2022-07-29T08:40:21;22.40;94.10
22568;DHT22;11450;50.818;4.382;2022-07-29T08:42:47;22.30;94.30
22568;DHT22;11450;50.818;4.382;2022-07-29T08:45:13;22.20;94.20
22568;DHT22;11450;50.818;4.382;2022-07-29T08:47:39;22.20;94.50
22568;DHT22;11450;50.818;4.382;2022-07-29T08:50:09;22.10;94.40
22568;DHT22;11450;50.818;4.382;2022-07-29T08:52:37;22.10;94.80
22568;DHT22;11450;50.818;4.382;2022-07-29T08:55:05;22.10;94.50
22568;DHT22;11450;50.818;4.382;2022-07-29T08:57:32;22.20;94.70
22568;DHT22;11450;50.818;4.382;2022-07-29T09:00:08;22.20;94.40
22568;DHT22;11450;50.818;4.382;2022-07-29T09:02:39;22.20;94.90
22568;DHT22;11450;50.818;4.382;2022-07-29T09:05:07;22.30;93.80
22568;DHT22;11450;50.818;4.382;2022-07-29T09:07:32;22.50;94.30
22568;DHT22;11450;50.818;4.382;2022-07-29T09:09:59;22.50;93.80
22568;DHT22;11450;50.818;4.382;2022-07-29T09:12:25;22.60;93.70
22568;DHT22;11450;50.818;4.382;2022-07-29T09:14:51;22.50;94.10
22568;DHT22;11450;50.818;4.382;2022-07-29T09:17:17;22.40;93.50
22568;DHT22;11450;50.818;4.382;2022-07-29T09:19:43;22.40;94.20
22568;DHT22;11450;50.818;4.382;2022-07-29T09:22:09;22.10;94.70
22568;DHT22;11450;50.818;4.382;2022-07-29T09:24:46;22.00;94.60
22568;DHT22;11450;50.818;4.382;2022-07-29T09:27:23;22.10;94.00
22568;DHT22;11450;50.818;4.382;2022-07-29T09:30:05;22.30;94.50
22568;DHT22;11450;50.818;4.382;2022-07-29T09:32:33;23.10;92.90
22568;DHT22;11450;50.818;4.382;2022-07-29T09:35:21;24.30;91.10
22568;DHT22;11450;50.818;4.382;2022-07-29T09:37:48;25.30;90.30
22568;DHT22;11450;50.818;4.382;2022-07-29T09:40:19;26.10;88.00
22568;DHT22;11450;50.818;4.382;2022-07-29T09:42:45;26.80;87.10
22568;DHT22;11450;50.818;4.382;2022-07-29T09:45:12;27.10;85.70
22568;DHT22;11450;50.818;4.382;2022-07-29T09:47:47;27.20;83.70
22568;DHT22;11450;50.818;4.382;2022-07-29T09:50:16;28.10;81.40
22568;DHT22;11450;50.818;4.382;2022-07-29T09:52:49;29.00;79.60
22568;DHT22;11450;50.818;4.382;2022-07-29T09:55:15;29.00;79.30
22568;DHT22;11450;50.818;4.382;2022-07-29T09:57:41;29.30;79.20
22568;DHT22;11450;50.818;4.382;2022-07-29T10:02:36;29.60;77.30
22568;DHT22;11450;50.818;4.382;2022-07-29T10:05:05;29.40;76.60
22568;DHT22;11450;50.818;4.382;2022-07-29T10:07:52;30.30;75.10
22568;DHT22;11450;50.818;4.382;2022-07-29T10:10:20;31.30;72.80
22568;DHT22;11450;50.818;4.382;2022-07-29T10:13:06;30.80;72.50
22568;DHT22;11450;50.818;4.382;2022-07-29T10:15:35;30.80;73.20
22568;DHT22;11450;50.818;4.382;2022-07-29T10:18:04;30.20;74.00
22568;DHT22;11450;50.818;4.382;2022-07-29T10:20:31;29.50;75.80
22568;DHT22;11450;50.818;4.382;2022-07-29T10:22:57;29.90;74.30
22568;DHT22;11450;50.818;4.382;2022-07-29T10:25:24;29.60;75.60
22568;DHT22;11450;50.818;4.382;2022-07-29T10:27:50;29.70;75.30
22568;DHT22;11450;50.818;4.382;2022-07-29T10:30:18;29.90;74.70
22568;DHT22;11450;50.818;4.382;2022-07-29T10:35:47;29.40;74.60
22568;DHT22;11450;50.818;4.382;2022-07-29T10:44:08;30.90;70.70
22568;DHT22;11450;50.818;4.382;2022-07-29T10:46:36;31.50;70.60
22568;DHT22;11450;50.818;4.382;2022-07-29T10:54:39;32.00;68.90
22568;DHT22;11450;50.818;4.382;2022-07-29T10:57:24;31.10;67.70
22568;DHT22;11450;50.818;4.382;2022-07-29T11:05:03;29.60;72.30
22568;DHT22;11450;50.818;4.382;2022-07-29T11:07:30;29.60;72.70
22568;DHT22;11450;50.818;4.382;2022-07-29T11:15:18;31.20;67.00
22568;DHT22;11450;50.818;4.382;2022-07-29T11:23:00;31.00;68.00
22568;DHT22;11450;50.818;4.382;2022-07-29T11:25:26;31.00;68.10
22568;DHT22;11450;50.818;4.382;2022-07-29T11:27:54;30.60;68.30
22568;DHT22;11450;50.818;4.382;2022-07-29T11:30:51;30.60;69.50
22568;DHT22;11450;50.818;4.382;2022-07-29T11:33:33;31.20;66.10
22568;DHT22;11450;50.818;4.382;2022-07-29T11:36:10;31.10;68.20
22568;DHT22;11450;50.818;4.382;2022-07-29T11:38:37;31.80;66.70
22568;DHT22;11450;50.818;4.382;2022-07-29T11:41:25;32.20;64.90
22568;DHT22;11450;50.818;4.382;2022-07-29T11:43:55;32.20;65.30
22568;DHT22;11450;50.818;4.382;2022-07-29T11:46:47;31.60;66.40
22568;DHT22;11450;50.818;4.382;2022-07-29T11:49:23;30.20;65.20
22568;DHT22;11450;50.818;4.382;2022-07-29T11:51:56;29.40;66.20
22568;DHT22;11450;50.818;4.382;2022-07-29T11:54:34;28.60;68.30
22568;DHT22;11450;50.818;4.382;2022-07-29T11:57:00;28.10;71.30
22568;DHT22;11450;50.818;4.382;2022-07-29T11:59:26;27.80;71.20
22568;DHT22;11450;50.818;4.382;2022-07-29T12:01:59;27.70;73.70
22568;DHT22;11450;50.818;4.382;2022-07-29T12:04:25;27.80;72.00
22568;DHT22;11450;50.818;4.382;2022-07-29T12:06:55;28.90;69.00
22568;DHT22;11450;50.818;4.382;2022-07-29T12:09:22;29.50;68.40
22568;DHT22;11450;50.818;4.382;2022-07-29T12:11:49;29.90;66.70
22568;DHT22;11450;50.818;4.382;2022-07-29T12:14:39;30.40;66.50
22568;DHT22;11450;50.818;4.382;2022-07-29T12:17:29;30.70;64.30
22568;DHT22;11450;50.818;4.382;2022-07-29T12:19:56;30.90;63.90
22568;DHT22;11450;50.818;4.382;2022-07-29T12:22:32;30.00;66.00
22568;DHT22;11450;50.818;4.382;2022-07-29T12:25:04;28.70;68.70
22568;DHT22;11450;50.818;4.382;2022-07-29T12:27:31;28.80;70.30
22568;DHT22;11450;50.818;4.382;2022-07-29T12:29:58;29.00;69.10
22568;DHT22;11450;50.818;4.382;2022-07-29T12:32:36;29.50;68.30
22568;DHT22;11450;50.818;4.382;2022-07-29T12:35:16;29.30;69.40
22568;DHT22;11450;50.818;4.382;2022-07-29T12:37:45;29.80;65.90
22568;DHT22;11450;50.818;4.382;2022-07-29T12:40:13;30.20;67.00
22568;DHT22;11450;50.818;4.382;2022-07-29T12:42:40;30.30;64.30
22568;DHT22;11450;50.818;4.382;2022-07-29T12:45:06;30.30;66.30
22568;DHT22;11450;50.818;4.382;2022-07-29T12:47:33;30.10;67.70
22568;DHT22;11450;50.818;4.382;2022-07-29T12:50:15;30.00;66.70
22568;DHT22;11450;50.818;4.382;2022-07-29T12:52:46;29.10;66.80
22568;DHT22;11450;50.818;4.382;2022-07-29T12:55:13;29.00;66.70
22568;DHT22;11450;50.818;4.382;2022-07-29T12:57:47;28.70;67.70
22568;DHT22;11450;50.818;4.382;2022-07-29T13:00:14;28.60;69.40
22568;DHT22;11450;50.818;4.382;2022-07-29T13:02:41;28.20;70.30
22568;DHT22;11450;50.818;4.382;2022-07-29T13:05:10;28.20;69.90
22568;DHT22;11450;50.818;4.382;2022-07-29T13:07:37;28.50;68.20
22568;DHT22;11450;50.818;4.382;2022-07-29T13:10:19;28.60;68.40
22568;DHT22;11450;50.818;4.382;2022-07-29T13:15:28;28.50;67.80
22568;DHT22;11450;50.818;4.382;2022-07-29T13:17:54;28.60;68.70
22568;DHT22;11450;50.818;4.382;2022-07-29T13:20:25;28.00;71.80
22568;DHT22;11450;50.818;4.382;2022-07-29T13:22:52;27.40;72.40
22568;DHT22;11450;50.818;4.382;2022-07-29T13:25:31;27.20;71.60
22568;DHT22;11450;50.818;4.382;2022-07-29T13:27:58;27.20;72.20
22568;DHT22;11450;50.818;4.382;2022-07-29T13:30:24;27.40;71.30
22568;DHT22;11450;50.818;4.382;2022-07-29T13:32:52;27.70;70.40
22568;DHT22;11450;50.818;4.382;2022-07-29T13:35:52;27.50;72.90
22568;DHT22;11450;50.818;4.382;2022-07-29T13:38:19;26.90;72.60
22568;DHT22;11450;50.818;4.382;2022-07-29T13:40:44;27.10;72.00
22568;DHT22;11450;50.818;4.382;2022-07-29T13:43:11;27.40;71.00
22568;DHT22;11450;50.818;4.382;2022-07-29T13:45:37;27.50;71.50
22568;DHT22;11450;50.818;4.382;2022-07-29T13:48:02;27.70;71.40
22568;DHT22;11450;50.818;4.382;2022-07-29T13:50:28;27.90;69.60
22568;DHT22;11450;50.818;4.382;2022-07-29T13:52:54;27.90;69.80
22568;DHT22;11450;50.818;4.382;2022-07-29T13:55:20;28.10;68.50
22568;DHT22;11450;50.818;4.382;2022-07-29T13:57:45;28.20;69.40
22568;DHT22;11450;50.818;4.382;2022-07-29T14:00:12;28.30;69.70
22568;DHT22;11450;50.818;4.382;2022-07-29T14:02:38;28.00;69.10
22568;DHT22;11450;50.818;4.382;2022-07-29T14:05:05;27.80;70.30
22568;DHT22;11450;50.818;4.382;2022-07-29T14:07:30;27.60;70.00
22568;DHT22;11450;50.818;4.382;2022-07-29T14:09:56;27.40;71.90
22568;DHT22;11450;50.818;4.382;2022-07-29T14:12:22;27.30;73.30
22568;DHT22;11450;50.818;4.382;2022-07-29T14:14:48;27.80;69.30
22568;DHT22;11450;50.818;4.382;2022-07-29T14:17:14;27.70;70.50
22568;DHT22;11450;50.818;4.382;2022-07-29T14:19:40;27.80;72.50
22568;DHT22;11450;50.818;4.382;2022-07-29T14:22:07;27.30;72.10
22568;DHT22;11450;50.818;4.382;2022-07-29T14:24:34;27.50;71.30
22568;DHT22;11450;50.818;4.382;2022-07-29T14:27:00;27.50;68.00
22568;DHT22;11450;50.818;4.382;2022-07-29T14:29:26;27.60;68.30
22568;DHT22;11450;50.818;4.382;2022-07-29T14:31:53;27.70;70.50
22568;DHT22;11450;50.818;4.382;2022-07-29T14:34:18;27.70;66.20
22568;DHT22;11450;50.818;4.382;2022-07-29T14:36:44;27.80;68.80
22568;DHT22;11450;50.818;4.382;2022-07-29T14:39:10;26.80;74.20
22568;DHT22;11450;50.818;4.382;2022-07-29T14:41:35;27.10;70.40
22568;DHT22;11450;50.818;4.382;2022-07-29T14:44:01;27.10;70.60
22568;DHT22;11450;50.818;4.382;2022-07-29T14:46:27;27.20;72.50
22568;DHT22;11450;50.818;4.382;2022-07-29T14:48:53;27.30;70.30
22568;DHT22;11450;50.818;4.382;2022-07-29T14:51:18;27.40;69.80
22568;DHT22;11450;50.818;4.382;2022-07-29T14:53:44;27.60;70.20
22568;DHT22;11450;50.818;4.382;2022-07-29T14:56:09;27.30;74.40
22568;DHT22;11450;50.818;4.382;2022-07-29T14:58:35;26.70;71.30
22568;DHT22;11450;50.818;4.382;2022-07-29T15:01:01;27.00;70.40
22568;DHT22;11450;50.818;4.382;2022-07-29T15:03:27;26.80;71.30
22568;DHT22;11450;50.818;4.382;2022-07-29T15:05:53;27.10;71.90
22568;DHT22;11450;50.818;4.382;2022-07-29T15:08:19;26.80;73.90
22568;DHT22;11450;50.818;4.382;2022-07-29T15:10:47;26.70;73.90
22568;DHT22;11450;50.818;4.382;2022-07-29T15:13:12;26.70;72.30
22568;DHT22;11450;50.818;4.382;2022-07-29T15:15:38;26.40;76.60
22568;DHT22;11450;50.818;4.382;2022-07-29T15:18:04;26.40;74.60
22568;DHT22;11450;50.818;4.382;2022-07-29T15:20:30;26.40;76.50
22568;DHT22;11450;50.818;4.382;2022-07-29T15:22:56;26.20;75.30
22568;DHT22;11450;50.818;4.382;2022-07-29T15:25:23;26.10;75.70
22568;DHT22;11450;50.818;4.382;2022-07-29T15:27:48;26.00;73.90
22568;DHT22;11450;50.818;4.382;2022-07-29T15:30:14;26.20;74.90
22568;DHT22;11450;50.818;4.382;2022-07-29T15:32:45;25.50;77.20
22568;DHT22;11450;50.818;4.382;2022-07-29T15:35:11;25.50;76.20
22568;DHT22;11450;50.818;4.382;2022-07-29T15:37:39;25.30;77.60
22568;DHT22;11450;50.818;4.382;2022-07-29T15:40:06;25.60;74.50
22568;DHT22;11450;50.818;4.382;2022-07-29T15:42:32;25.90;74.20
22568;DHT22;11450;50.818;4.382;2022-07-29T15:45:00;26.10;73.70
22568;DHT22;11450;50.818;4.382;2022-07-29T15:47:28;26.10;74.20
22568;DHT22;11450;50.818;4.382;2022-07-29T15:49:54;26.10;75.80
22568;DHT22;11450;50.818;4.382;2022-07-29T15:52:20;25.80;77.30
22568;DHT22;11450;50.818;4.382;2022-07-29T15:54:45;25.80;75.40
22568;DHT22;11450;50.818;4.382;2022-07-29T15:57:11;26.20;73.10
22568;DHT22;11450;50.818;4.382;2022-07-29T15:59:37;26.40;72.20
22568;DHT22;11450;50.818;4.382;2022-07-29T16:02:03;26.60;72.30
22568;DHT22;11450;50.818;4.382;2022-07-29T16:04:29;26.60;74.80
22568;DHT22;11450;50.818;4.382;2022-07-29T16:06:56;26.20;75.00
22568;DHT22;11450;50.818;4.382;2022-07-29T16:09:22;26.40;74.50
22568;DHT22;11450;50.818;4.382;2022-07-29T16:11:48;26.60;71.70
22568;DHT22;11450;50.818;4.382;2022-07-29T16:14:17;26.40;73.20
22568;DHT22;11450;50.818;4.382;2022-07-29T16:16:43;26.00;77.40
22568;DHT22;11450;50.818;4.382;2022-07-29T16:19:09;25.80;77.60
22568;DHT22;11450;50.818;4.382;2022-07-29T16:21:36;25.80;75.60
22568;DHT22;11450;50.818;4.382;2022-07-29T16:24:03;25.70;75.40